createdAt,value
2022-11-03T00:01:50.967Z,18.02
2022-11-03T00:04:21.318Z,18.40
2022-11-03T00:06:54.503Z,17.20
2022-11-03T00:09:23.679Z,18.10
2022-11-03T00:11:52.160Z,17.10
2022-11-03T00:14:20.807Z,17.92
2022-11-03T00:16:48.648Z,18.70
2022-11-03T00:19:17.648Z,17.25
2022-11-03T00:21:45.994Z,16.98
2022-11-03T00:24:13.992Z,16.33
2022-11-03T00:26:41.834Z,17.02
2022-11-03T00:29:14.424Z,16.63
2022-11-03T00:31:44.259Z,17.13
2022-11-03T00:34:12.845Z,16.92
2022-11-03T00:36:43.132Z,17.60
2022-11-03T00:39:11.676Z,17.00
2022-11-03T00:41:40.254Z,17.98
2022-11-03T00:44:10.686Z,17.75
2022-11-03T00:46:38.914Z,16.48
2022-11-03T00:49:06.850Z,18.30
2022-11-03T00:51:37.577Z,16.80
2022-11-03T00:54:07.400Z,16.20
2022-11-03T00:56:38.015Z,16.40
2022-11-03T00:59:07.429Z,16.33
2022-11-03T01:01:45.344Z,17.20
2022-11-03T01:04:35.473Z,16.88
2022-11-03T01:07:07.791Z,15.63
2022-11-03T01:09:38.896Z,17.55
2022-11-03T01:12:13.821Z,15.85
2022-11-03T01:14:46.672Z,17.10
2022-11-03T01:17:24.172Z,14.93
2022-11-03T01:19:52.432Z,16.45
2022-11-03T01:22:21.816Z,16.83
2022-11-03T01:24:49.643Z,16.23
2022-11-03T01:27:20.904Z,16.38
2022-11-03T01:29:48.900Z,15.07
2022-11-03T01:32:16.903Z,16.40
2022-11-03T01:34:44.788Z,16.25
2022-11-03T01:37:12.618Z,15.80
2022-11-03T01:39:40.370Z,15.77
2022-11-03T01:42:13.613Z,15.25
2022-11-03T01:44:48.934Z,15.40
2022-11-03T01:47:30.270Z,16.90
2022-11-03T01:50:03.099Z,15.68
2022-11-03T01:52:47.789Z,15.23
2022-11-03T01:55:29.804Z,16.85
2022-11-03T01:58:06.050Z,14.38
2022-11-03T02:00:35.119Z,14.32
2022-11-03T02:03:03.765Z,14.50
2022-11-03T02:05:31.879Z,15.13
2022-11-03T02:10:38.070Z,14.27
2022-11-03T02:13:18.386Z,14.20
2022-11-03T02:15:49.299Z,13.98
2022-11-03T02:18:20.463Z,14.57
2022-11-03T02:20:58.977Z,14.48
2022-11-03T02:23:37.852Z,14.57
2022-11-03T02:26:08.336Z,13.57
2022-11-03T02:28:36.390Z,14.13
2022-11-03T02:31:23.908Z,14.80
2022-11-03T02:34:08.952Z,14.40
2022-11-03T02:37:30.821Z,12.95
2022-11-03T02:40:22.351Z,13.32
2022-11-03T02:42:52.947Z,12.45
2022-11-03T02:45:25.631Z,11.68
2022-11-03T02:47:57.736Z,11.68
2022-11-03T02:50:30.538Z,11.82
2022-11-03T02:52:59.030Z,10.13
2022-11-03T02:55:35.724Z,9.70
2022-11-03T02:58:32.654Z,10.05
2022-11-03T03:01:15.283Z,10.50
2022-11-03T03:03:53.022Z,8.88
2022-11-03T03:06:34.336Z,8.05
2022-11-03T03:09:07.619Z,8.48
2022-11-03T03:11:38.398Z,7.53
2022-11-03T03:14:16.927Z,8.10
2022-11-03T03:16:54.759Z,7.72
2022-11-03T03:19:38.569Z,7.68
2022-11-03T03:22:24.499Z,7.43
2022-11-03T03:25:14.982Z,8.27
2022-11-03T03:27:49.098Z,8.27
2022-11-03T03:32:49.395Z,8.13
2022-11-03T03:35:28.087Z,8.02
2022-11-03T03:38:04.610Z,8.48
2022-11-03T03:40:39.048Z,8.43
2022-11-03T03:43:10.238Z,8.50
2022-11-03T03:45:38.938Z,9.27
2022-11-03T03:48:07.613Z,9.13
2022-11-03T03:50:40.174Z,9.77
2022-11-03T03:53:11.836Z,9.23
2022-11-03T03:55:43.458Z,8.85
2022-11-03T03:58:14.112Z,8.55
2022-11-03T04:00:42.867Z,8.98
2022-11-03T04:03:17.984Z,9.55
2022-11-03T04:05:46.564Z,9.50
2022-11-03T04:08:15.724Z,10.10
2022-11-03T04:11:02.709Z,9.38
2022-11-03T04:13:49.433Z,8.52
2022-11-03T04:16:35.553Z,7.75
2022-11-03T04:19:21.970Z,7.55
2022-11-03T04:22:08.399Z,7.97
2022-11-03T04:24:36.366Z,6.97
2022-11-03T04:27:33.181Z,8.00
2022-11-03T04:30:17.627Z,7.82
2022-11-03T04:32:48.053Z,7.97
2022-11-03T04:35:18.654Z,6.95
2022-11-03T04:37:51.761Z,7.22
2022-11-03T04:40:19.667Z,8.05
2022-11-03T04:42:47.740Z,7.47
2022-11-03T04:45:28.821Z,7.78
2022-11-03T04:47:59.768Z,9.10
2022-11-03T04:50:27.880Z,8.25
2022-11-03T04:52:58.245Z,7.90
2022-11-03T04:55:27.062Z,8.43
2022-11-03T04:57:58.733Z,8.77
2022-11-03T05:00:26.651Z,8.48
2022-11-03T05:02:56.197Z,8.27
2022-11-03T05:05:26.698Z,7.88
2022-11-03T05:07:57.058Z,8.65
2022-11-03T05:10:26.645Z,8.48
2022-11-03T05:12:55.296Z,9.32
2022-11-03T05:15:36.198Z,9.13
2022-11-03T05:18:31.639Z,8.93
2022-11-03T05:21:09.622Z,9.13
2022-11-03T05:23:51.134Z,9.30
2022-11-03T05:26:24.814Z,9.02
2022-11-03T05:29:00.041Z,9.95
2022-11-03T05:31:28.973Z,9.05
2022-11-03T05:34:02.722Z,8.57
2022-11-03T05:36:33.334Z,8.73
2022-11-03T05:39:31.474Z,9.05
2022-11-03T05:42:00.351Z,8.30
2022-11-03T05:44:37.961Z,9.00
2022-11-03T05:47:36.466Z,8.68
2022-11-03T05:50:25.666Z,8.75
2022-11-03T05:53:19.778Z,9.27
2022-11-03T05:55:47.647Z,8.35
2022-11-03T05:58:25.908Z,8.85
2022-11-03T06:00:54.876Z,8.52
2022-11-03T06:03:29.455Z,9.18
2022-11-03T06:05:58.860Z,9.38
2022-11-03T06:08:33.900Z,9.20
2022-11-03T06:11:03.910Z,8.98
2022-11-03T06:13:37.710Z,9.32
2022-11-03T06:16:37.973Z,9.32
2022-11-03T06:19:22.259Z,9.80
2022-11-03T06:21:51.823Z,10.00
2022-11-03T06:24:23.350Z,9.70
2022-11-03T06:26:53.017Z,9.25
2022-11-03T06:29:22.217Z,10.73
2022-11-03T06:31:53.243Z,10.00
2022-11-03T06:34:34.556Z,9.82
2022-11-03T06:37:13.735Z,11.38
2022-11-03T06:39:42.002Z,10.88
2022-11-03T06:42:15.255Z,8.52
2022-11-03T06:44:47.796Z,8.97
2022-11-03T06:47:24.454Z,9.18
2022-11-03T06:49:54.676Z,8.50
2022-11-03T06:52:30.895Z,8.73
2022-11-03T06:55:12.101Z,8.15
2022-11-03T06:57:46.513Z,9.05
2022-11-03T07:00:34.560Z,9.02
2022-11-03T07:03:09.833Z,9.43
2022-11-03T07:05:39.029Z,8.82
2022-11-03T07:08:29.391Z,10.70
2022-11-03T07:10:59.990Z,9.05
2022-11-03T07:13:29.297Z,9.43
2022-11-03T07:15:57.082Z,8.18
2022-11-03T07:18:39.785Z,8.68
2022-11-03T07:21:20.216Z,9.95
2022-11-03T07:23:48.105Z,9.20
2022-11-03T07:26:16.127Z,8.77
2022-11-03T07:28:44.127Z,9.25
2022-11-03T07:31:20.521Z,9.25
2022-11-03T07:33:48.702Z,8.30
2022-11-03T07:36:21.053Z,9.15
2022-11-03T07:38:52.591Z,8.55
2022-11-03T07:41:24.398Z,9.40
2022-11-03T07:43:56.266Z,8.23
2022-11-03T07:46:25.408Z,8.93
2022-11-03T07:49:02.913Z,8.30
2022-11-03T07:51:37.677Z,8.98
2022-11-03T07:54:08.702Z,8.05
2022-11-03T07:56:52.270Z,8.10
2022-11-03T07:59:29.547Z,7.90
2022-11-03T08:01:58.952Z,7.90
2022-11-03T08:04:29.851Z,9.02
2022-11-03T08:06:57.955Z,8.38
2022-11-03T08:09:25.850Z,9.15
2022-11-03T08:11:53.930Z,8.80
2022-11-03T08:14:21.777Z,8.52
2022-11-03T08:16:49.747Z,8.85
2022-11-03T08:19:17.711Z,10.30
2022-11-03T08:21:45.923Z,10.75
2022-11-03T08:24:13.805Z,10.20
2022-11-03T08:26:41.549Z,9.10
2022-11-03T08:29:10.161Z,9.15
2022-11-03T08:31:37.986Z,9.82
2022-11-03T08:34:05.807Z,9.05
2022-11-03T08:36:33.884Z,8.23
2022-11-03T08:39:01.629Z,9.35
2022-11-03T08:41:29.430Z,8.57
2022-11-03T08:43:57.551Z,9.10
2022-11-03T08:46:25.384Z,8.40
2022-11-03T08:48:53.290Z,10.38
2022-11-03T08:51:21.176Z,10.27
2022-11-03T08:53:54.200Z,9.73
2022-11-03T08:56:22.686Z,9.43
2022-11-03T08:58:50.763Z,10.30
2022-11-03T09:01:18.920Z,9.30
2022-11-03T09:03:47.082Z,11.15
2022-11-03T09:06:15.101Z,9.98
2022-11-03T09:11:30.670Z,8.93
2022-11-03T09:13:58.503Z,10.35
2022-11-03T09:16:26.752Z,10.43
2022-11-03T09:18:54.660Z,9.52
2022-11-03T09:21:22.759Z,11.00
2022-11-03T09:23:50.682Z,12.90
2022-11-03T09:26:19.144Z,11.90
2022-11-03T09:28:47.204Z,11.70
2022-11-03T09:31:15.485Z,12.15
2022-11-03T09:33:43.397Z,12.23
2022-11-03T09:36:11.277Z,12.77
2022-11-03T09:38:39.124Z,12.40
2022-11-03T09:41:18.562Z,12.45
2022-11-03T09:43:57.839Z,12.65
2022-11-03T09:46:28.669Z,10.95
2022-11-03T09:48:57.271Z,10.63
2022-11-03T09:51:27.540Z,11.15
2022-11-03T09:54:02.135Z,10.43
2022-11-03T09:56:30.831Z,10.60
2022-11-03T09:59:00.154Z,11.35
2022-11-03T10:01:28.234Z,10.77
2022-11-03T10:04:00.305Z,12.68
2022-11-03T10:06:29.431Z,12.57
2022-11-03T10:08:57.305Z,12.07
2022-11-03T10:11:25.197Z,13.07
2022-11-03T10:13:56.608Z,15.10
2022-11-03T10:16:26.511Z,14.77
2022-11-03T10:18:54.600Z,13.93
2022-11-03T10:21:34.193Z,12.93
2022-11-03T10:24:01.990Z,13.40
2022-11-03T10:26:35.757Z,12.88
2022-11-03T10:29:09.950Z,15.25
2022-11-03T10:31:42.281Z,14.48
2022-11-03T10:34:37.717Z,16.20
2022-11-03T10:37:25.659Z,15.10
2022-11-03T10:39:55.698Z,16.92
2022-11-03T10:42:29.268Z,17.35
2022-11-03T10:45:23.027Z,16.00
2022-11-03T10:48:07.199Z,17.73
2022-11-03T10:50:35.260Z,16.65
2022-11-03T10:53:03.906Z,18.17
2022-11-03T10:55:32.316Z,18.50
2022-11-03T10:58:00.278Z,17.75
2022-11-03T11:00:28.090Z,19.35
2022-11-03T11:03:00.469Z,18.92
2022-11-03T11:05:28.770Z,19.17
2022-11-03T11:07:56.953Z,20.98
2022-11-03T11:10:27.107Z,19.77
2022-11-03T11:13:18.138Z,18.02
2022-11-03T11:15:47.331Z,19.00
2022-11-03T11:18:30.343Z,21.40
2022-11-03T11:21:02.719Z,20.27
2022-11-03T11:23:30.490Z,20.10
2022-11-03T11:26:10.575Z,22.00
2022-11-03T11:28:41.262Z,20.02
2022-11-03T11:31:32.796Z,19.90
2022-11-03T11:34:09.819Z,19.02
2022-11-03T11:36:39.795Z,18.95
2022-11-03T11:39:20.435Z,18.67
2022-11-03T11:42:09.700Z,17.05
2022-11-03T11:44:45.973Z,18.63
2022-11-03T11:47:43.929Z,18.25
2022-11-03T11:50:14.454Z,17.15
2022-11-03T11:52:49.838Z,19.63
2022-11-03T11:55:42.384Z,17.85
2022-11-03T11:58:18.548Z,17.60
2022-11-03T12:01:19.947Z,18.60
2022-11-03T12:03:48.688Z,17.98
2022-11-03T12:06:16.890Z,17.98
2022-11-03T12:08:44.773Z,19.10
2022-11-03T12:11:13.901Z,19.23
2022-11-03T12:13:54.039Z,20.05
2022-11-03T12:16:36.467Z,22.00
2022-11-03T12:19:34.171Z,22.75
2022-11-03T12:22:04.066Z,20.27
2022-11-03T12:24:31.960Z,21.58
2022-11-03T12:27:01.180Z,20.63
2022-11-03T12:29:29.392Z,19.90
2022-11-03T12:31:57.292Z,21.70
2022-11-03T12:34:25.338Z,19.88
2022-11-03T12:36:56.187Z,19.38
2022-11-03T12:39:24.348Z,20.80
2022-11-03T12:41:52.143Z,21.17
2022-11-03T12:44:20.003Z,20.00
2022-11-03T12:46:48.022Z,19.55
2022-11-03T12:49:15.764Z,19.05
2022-11-03T12:51:44.414Z,18.77
2022-11-03T12:54:12.193Z,19.98
2022-11-03T12:56:41.045Z,18.20
2022-11-03T12:59:09.428Z,20.02
2022-11-03T13:01:37.902Z,17.83
2022-11-03T13:04:06.469Z,17.92
2022-11-03T13:06:34.786Z,18.50
2022-11-03T13:09:02.852Z,20.55
2022-11-03T13:11:49.184Z,19.67
2022-11-03T13:14:17.139Z,19.38
2022-11-03T13:16:45.031Z,19.58
2022-11-03T13:19:13.037Z,19.85
2022-11-03T13:21:42.746Z,18.67
2022-11-03T13:24:10.755Z,18.92
2022-11-03T13:26:38.929Z,19.58
2022-11-03T13:29:08.376Z,20.00
2022-11-03T13:31:37.789Z,20.63
2022-11-03T13:34:06.832Z,19.58
2022-11-03T13:36:38.291Z,21.02
2022-11-03T13:39:06.342Z,19.50
2022-11-03T13:41:34.875Z,18.70
2022-11-03T13:44:02.861Z,19.60
2022-11-03T13:46:30.871Z,19.90
2022-11-03T13:51:47.392Z,20.55
2022-11-03T13:59:52.201Z,18.83
2022-11-03T14:05:11.282Z,19.92
2022-11-03T14:07:39.381Z,18.58
2022-11-03T14:10:07.694Z,20.25
2022-11-03T14:12:36.402Z,20.55
2022-11-03T14:15:07.809Z,18.80
2022-11-03T14:17:36.273Z,19.27
2022-11-03T14:20:05.746Z,19.17
2022-11-03T14:22:33.999Z,17.95
2022-11-03T14:25:02.670Z,18.95
2022-11-03T14:27:30.647Z,16.48
2022-11-03T14:29:58.601Z,18.05
2022-11-03T14:32:26.977Z,17.98
2022-11-03T14:34:54.908Z,17.02
2022-11-03T14:37:25.618Z,18.45
2022-11-03T14:39:54.530Z,18.90
2022-11-03T14:42:22.371Z,16.42
2022-11-03T14:44:50.424Z,17.15
2022-11-03T14:47:21.828Z,16.73
2022-11-03T14:49:49.892Z,17.10
2022-11-03T14:52:18.026Z,17.35
2022-11-03T14:54:45.909Z,17.20
2022-11-03T14:57:13.840Z,18.95
2022-11-03T14:59:42.410Z,18.80
2022-11-03T15:02:10.751Z,18.23
2022-11-03T15:04:38.797Z,18.98
2022-11-03T15:07:06.883Z,18.45
2022-11-03T15:09:34.713Z,20.65
2022-11-03T15:12:02.657Z,19.35
2022-11-03T15:14:30.580Z,20.85
2022-11-03T15:16:58.542Z,21.33
2022-11-03T15:19:26.487Z,20.63
2022-11-03T15:21:54.581Z,18.80
2022-11-03T15:27:11.081Z,20.10
2022-11-03T15:29:38.867Z,20.60
2022-11-03T15:32:06.987Z,21.30
2022-11-03T15:34:35.967Z,22.20
2022-11-03T15:37:03.830Z,21.13
2022-11-03T15:39:31.794Z,21.58
2022-11-03T15:42:00.412Z,20.13
2022-11-03T15:44:28.293Z,20.95
2022-11-03T15:46:56.122Z,19.00
2022-11-03T15:49:24.140Z,19.73
2022-11-03T15:51:52.176Z,19.25
2022-11-03T15:54:19.991Z,19.02
2022-11-03T15:56:48.012Z,19.63
2022-11-03T15:59:16.229Z,20.38
2022-11-03T16:01:44.410Z,18.10
2022-11-03T16:04:12.398Z,20.38
2022-11-03T16:07:06.356Z,20.05
2022-11-03T16:09:28.269Z,19.83
2022-11-03T16:11:56.275Z,18.98
2022-11-03T16:14:24.256Z,20.83
2022-11-03T16:16:52.056Z,19.80
2022-11-03T16:19:20.043Z,19.17
2022-11-03T16:21:47.902Z,20.45
2022-11-03T16:24:15.966Z,20.23
2022-11-03T16:26:44.759Z,19.83
2022-11-03T16:29:12.793Z,18.98
2022-11-03T16:31:40.731Z,18.55
2022-11-03T16:34:08.793Z,19.05
2022-11-03T16:36:37.151Z,18.92
2022-11-03T16:39:05.308Z,19.27
2022-11-03T16:41:33.656Z,20.17
2022-11-03T16:44:04.400Z,19.55
2022-11-03T16:46:32.325Z,19.38
2022-11-03T16:51:33.326Z,17.17
2022-11-03T16:54:04.576Z,18.60
2022-11-03T16:56:32.569Z,18.05
2022-11-03T16:59:00.516Z,17.98
2022-11-03T17:01:29.802Z,19.83
2022-11-03T17:03:58.064Z,19.13
2022-11-03T17:06:25.938Z,20.05
2022-11-03T17:08:54.065Z,19.00
2022-11-03T17:11:36.296Z,19.23
2022-11-03T17:14:07.047Z,18.50
2022-11-03T17:16:35.318Z,18.58
2022-11-03T17:19:03.793Z,19.88
2022-11-03T17:21:32.207Z,18.80
2022-11-03T17:24:00.423Z,18.35
2022-11-03T17:26:43.059Z,19.17
2022-11-03T17:29:16.358Z,20.88
2022-11-03T17:31:45.214Z,21.15
2022-11-03T17:34:18.667Z,20.33
2022-11-03T17:36:46.661Z,20.85
2022-11-03T17:39:16.962Z,22.23
2022-11-03T17:41:45.938Z,20.85
2022-11-03T17:44:17.357Z,20.25
2022-11-03T17:46:48.152Z,21.25
2022-11-03T17:49:17.846Z,20.77
2022-11-03T17:52:33.030Z,20.50
2022-11-03T17:56:31.992Z,20.15
2022-11-03T17:59:54.376Z,21.17
2022-11-03T18:02:28.819Z,20.30
2022-11-03T18:06:21.153Z,20.70
2022-11-03T18:08:30.922Z,21.05
2022-11-03T18:12:05.501Z,20.42
2022-11-03T18:15:17.658Z,21.65
2022-11-03T18:17:51.143Z,19.55
2022-11-03T18:20:23.029Z,21.35
2022-11-03T18:22:51.119Z,21.55
2022-11-03T18:25:21.441Z,19.35
2022-11-03T18:27:49.491Z,21.27
2022-11-03T18:30:17.600Z,22.98
2022-11-03T18:32:46.451Z,22.27
2022-11-03T18:35:27.565Z,22.50
2022-11-03T18:37:56.715Z,22.15
2022-11-03T18:40:24.826Z,21.58
2022-11-03T18:42:53.073Z,22.48
2022-11-03T18:45:21.994Z,20.75
2022-11-03T18:47:50.035Z,22.15
2022-11-03T18:50:19.209Z,23.95
2022-11-03T18:52:49.527Z,23.23
2022-11-03T18:55:19.231Z,23.42
2022-11-03T18:57:47.618Z,22.83
2022-11-03T19:00:49.715Z,23.90
2022-11-03T19:04:18.245Z,22.20
2022-11-03T19:07:23.922Z,24.33
2022-11-03T19:10:08.773Z,24.55
2022-11-03T19:12:40.876Z,24.38
2022-11-03T19:15:30.783Z,25.65
2022-11-03T19:18:07.588Z,26.08
2022-11-03T19:20:36.049Z,26.23
2022-11-03T19:23:04.711Z,24.70
2022-11-03T19:25:32.889Z,27.00
2022-11-03T19:28:01.064Z,24.70
2022-11-03T19:30:28.965Z,26.65
2022-11-03T19:32:58.231Z,25.88
2022-11-03T19:35:33.136Z,26.75
2022-11-03T19:38:05.574Z,26.45
2022-11-03T19:40:33.942Z,25.70
2022-11-03T19:43:01.868Z,25.90
2022-11-03T19:45:29.684Z,25.58
2022-11-03T19:50:51.910Z,25.90
2022-11-03T19:53:33.457Z,26.27
2022-11-03T19:56:01.645Z,27.05
2022-11-03T19:58:29.920Z,25.88
2022-11-03T20:00:58.347Z,26.98
2022-11-03T20:03:26.773Z,26.23
2022-11-03T20:05:57.013Z,25.63
2022-11-03T20:08:27.925Z,24.42
2022-11-03T20:10:56.504Z,26.77
2022-11-03T20:13:29.056Z,24.95
2022-11-03T20:16:01.354Z,25.05
2022-11-03T20:18:29.807Z,28.60
2022-11-03T20:21:04.488Z,26.88
2022-11-03T20:23:35.461Z,25.30
2022-11-03T20:26:03.731Z,27.40
2022-11-03T20:28:36.428Z,27.50
2022-11-03T20:31:08.150Z,28.65
2022-11-03T20:33:36.402Z,25.23
2022-11-03T20:36:04.956Z,24.85
2022-11-03T20:38:33.583Z,24.67
2022-11-03T20:41:07.148Z,25.30
2022-11-03T20:43:41.874Z,24.33
2022-11-03T20:46:23.810Z,26.10
2022-11-03T20:48:52.812Z,26.42
2022-11-03T20:51:24.180Z,26.55
2022-11-03T20:53:52.879Z,25.67
2022-11-03T20:56:27.079Z,24.27
2022-11-03T21:01:33.487Z,23.58
2022-11-03T21:04:03.491Z,22.50
2022-11-03T21:06:33.043Z,23.55
2022-11-03T21:09:04.974Z,24.40
2022-11-03T21:11:39.909Z,25.58
2022-11-03T21:14:30.004Z,24.60
2022-11-03T21:17:16.636Z,25.33
2022-11-03T21:20:02.218Z,25.20
2022-11-03T21:22:53.937Z,23.75
2022-11-03T21:25:24.295Z,22.58
2022-11-03T21:27:54.470Z,24.98
2022-11-03T21:30:22.775Z,24.23
2022-11-03T21:32:51.010Z,24.52
2022-11-03T21:35:21.773Z,24.35
2022-11-03T21:37:49.763Z,23.23
2022-11-03T21:40:18.248Z,23.27
2022-11-03T21:43:04.942Z,23.15
2022-11-03T21:45:33.409Z,24.20
2022-11-03T21:48:20.606Z,22.65
2022-11-03T21:50:49.289Z,22.88
2022-11-03T21:53:17.759Z,22.02
2022-11-03T21:55:53.785Z,21.50
2022-11-03T21:58:21.896Z,20.65
2022-11-03T22:00:50.033Z,20.85
2022-11-03T22:03:18.156Z,19.92
2022-11-03T22:05:46.106Z,21.38
2022-11-03T22:08:13.897Z,20.42
2022-11-03T22:10:41.801Z,21.58
2022-11-03T22:13:10.120Z,21.88
2022-11-03T22:15:57.017Z,19.05
2022-11-03T22:18:25.685Z,20.92
2022-11-03T22:21:16.424Z,20.55
2022-11-03T22:24:02.863Z,20.48
2022-11-03T22:26:49.118Z,20.08
2022-11-03T22:29:35.418Z,20.25
2022-11-03T22:32:03.295Z,19.77
2022-11-03T22:34:49.615Z,17.70
2022-11-03T22:37:17.434Z,17.80
2022-11-03T22:40:04.033Z,18.33
2022-11-03T22:42:50.744Z,17.02
2022-11-03T22:45:37.183Z,15.25
2022-11-03T22:48:05.587Z,15.30
2022-11-03T22:50:33.652Z,15.88
2022-11-03T22:53:21.435Z,15.45
2022-11-03T22:55:49.339Z,15.82
2022-11-03T22:58:17.167Z,16.05
2022-11-03T23:00:45.532Z,16.52
2022-11-03T23:03:14.362Z,15.15
2022-11-03T23:05:43.035Z,15.15
2022-11-03T23:08:10.917Z,13.43
2022-11-03T23:10:38.848Z,13.30
2022-11-03T23:13:07.028Z,12.45
2022-11-03T23:15:35.194Z,13.65
2022-11-03T23:18:23.517Z,14.15
2022-11-03T23:21:09.429Z,12.68
2022-11-03T23:23:57.819Z,12.05
2022-11-03T23:26:27.135Z,11.60
2022-11-03T23:28:55.231Z,9.90
2022-11-03T23:31:23.063Z,11.10
2022-11-03T23:33:51.102Z,11.18
2022-11-03T23:36:19.037Z,11.23
2022-11-03T23:38:46.887Z,10.57
2022-11-03T23:41:17.139Z,10.13
2022-11-03T23:43:47.635Z,9.73
2022-11-03T23:46:37.393Z,10.02
2022-11-03T23:49:05.473Z,10.25
2022-11-03T23:51:35.444Z,11.07
2022-11-03T23:54:06.758Z,10.05
2022-11-03T23:56:56.004Z,8.48
2022-11-03T23:59:24.592Z,9.48
